createdAt,value
2023-05-04T00:00:08.589Z,59.47
2023-05-04T00:02:10.424Z,59.77
2023-05-04T00:04:12.760Z,59.84
2023-05-04T00:06:15.203Z,60.69
2023-05-04T00:08:17.776Z,60.02
2023-05-04T00:10:19.907Z,59.78
2023-05-04T00:12:21.726Z,60.06
2023-05-04T00:14:23.492Z,59.98
2023-05-04T00:16:26.162Z,59.81
2023-05-04T00:18:27.889Z,60.58
2023-05-04T00:20:29.583Z,61.45
2023-05-04T00:22:31.600Z,60.55
2023-05-04T00:24:33.531Z,60.80
2023-05-04T00:26:37.565Z,60.34
2023-05-04T00:28:39.531Z,60.87
2023-05-04T00:30:41.566Z,61.31
2023-05-04T00:32:43.698Z,61.74
2023-05-04T00:34:45.712Z,61.07
2023-05-04T00:36:47.446Z,60.68
2023-05-04T00:38:51.874Z,61.45
2023-05-04T00:40:53.744Z,60.95
2023-05-04T00:42:55.724Z,61.67
2023-05-04T00:44:57.511Z,61.45
2023-05-04T00:46:59.423Z,61.13
2023-05-04T00:49:02.467Z,61.94
2023-05-04T00:51:04.781Z,61.52
2023-05-04T00:53:10.810Z,61.77
2023-05-04T00:55:14.572Z,62.16
2023-05-04T00:57:17.420Z,61.73
2023-05-04T00:59:19.996Z,62.39
2023-05-04T01:01:22.485Z,61.67
2023-05-04T01:03:26.259Z,61.77
2023-05-04T01:05:34.756Z,62.15
2023-05-04T01:07:56.794Z,62.45
2023-05-04T01:10:04.082Z,62.62
2023-05-04T01:12:18.242Z,62.65
2023-05-04T01:14:22.278Z,62.67
2023-05-04T01:16:24.086Z,62.50
2023-05-04T01:18:26.392Z,62.21
2023-05-04T01:20:28.525Z,62.66
2023-05-04T01:22:32.623Z,62.35
2023-05-04T01:24:34.660Z,63.05
2023-05-04T01:26:41.807Z,62.96
2023-05-04T01:28:59.698Z,62.22
2023-05-04T01:31:02.818Z,63.11
2023-05-04T01:33:04.931Z,62.96
2023-05-04T01:35:08.179Z,63.05
2023-05-04T01:37:10.516Z,63.41
2023-05-04T01:39:12.279Z,62.91
2023-05-04T01:41:14.015Z,63.27
2023-05-04T01:43:15.754Z,63.29
2023-05-04T01:45:17.499Z,63.63
2023-05-04T01:47:19.228Z,63.10
2023-05-04T01:49:20.948Z,64.44
2023-05-04T01:51:22.673Z,64.14
2023-05-04T01:53:24.632Z,63.84
2023-05-04T01:55:26.460Z,64.02
2023-05-04T01:57:28.440Z,63.81
2023-05-04T01:59:30.618Z,64.25
2023-05-04T02:01:32.337Z,64.22
2023-05-04T02:03:34.167Z,64.22
2023-05-04T02:05:36.319Z,64.24
2023-05-04T02:07:38.145Z,64.32
2023-05-04T02:09:39.975Z,64.86
2023-05-04T02:11:43.400Z,64.21
2023-05-04T02:13:45.155Z,64.17
2023-05-04T02:15:49.462Z,64.61
2023-05-04T02:17:51.378Z,63.49
2023-05-04T02:19:53.163Z,64.55
2023-05-04T02:21:54.861Z,64.34
2023-05-04T02:23:56.627Z,64.27
2023-05-04T02:25:58.399Z,64.70
2023-05-04T02:28:00.212Z,63.89
2023-05-04T02:30:01.995Z,64.21
2023-05-04T02:32:04.117Z,63.95
2023-05-04T02:34:06.137Z,63.69
2023-05-04T02:36:10.903Z,64.14
2023-05-04T02:38:12.634Z,63.46
2023-05-04T02:40:14.446Z,64.37
2023-05-04T02:42:16.440Z,64.52
2023-05-04T02:44:18.132Z,64.64
2023-05-04T02:46:20.255Z,64.33
2023-05-04T02:48:22.063Z,64.30
2023-05-04T02:50:23.888Z,63.70
2023-05-04T02:52:25.695Z,64.20
2023-05-04T02:54:27.556Z,64.33
2023-05-04T02:56:29.252Z,63.67
2023-05-04T02:58:31.028Z,63.86
2023-05-04T03:00:32.845Z,64.12
2023-05-04T03:02:34.937Z,63.78
2023-05-04T03:04:37.116Z,63.63
2023-05-04T03:06:39.338Z,63.91
2023-05-04T03:08:41.592Z,64.46
2023-05-04T03:10:43.701Z,63.90
2023-05-04T03:12:45.659Z,65.17
2023-05-04T03:14:47.410Z,64.71
2023-05-04T03:16:49.459Z,64.51
2023-05-04T03:21:10.914Z,64.61
2023-05-04T03:23:12.622Z,64.66
2023-05-04T03:25:14.497Z,64.34
2023-05-04T03:27:16.356Z,64.37
2023-05-04T03:29:18.268Z,64.60
2023-05-04T03:31:20.053Z,64.67
2023-05-04T03:33:21.829Z,64.18
2023-05-04T03:35:24.889Z,64.85
2023-05-04T03:37:27.147Z,64.93
2023-05-04T03:39:28.929Z,64.90
2023-05-04T03:41:30.828Z,64.47
2023-05-04T03:43:32.850Z,64.66
2023-05-04T03:45:34.652Z,65.34
2023-05-04T03:47:36.491Z,64.76
2023-05-04T03:49:38.224Z,64.70
2023-05-04T03:51:40.172Z,65.04
2023-05-04T03:53:43.420Z,65.33
2023-05-04T03:55:46.535Z,65.41
2023-05-04T03:57:48.207Z,64.78
2023-05-04T03:59:50.920Z,64.80
2023-05-04T04:01:53.490Z,64.74
2023-05-04T04:03:55.533Z,65.35
2023-05-04T04:05:57.755Z,65.17
2023-05-04T04:07:59.590Z,65.08
2023-05-04T04:10:01.345Z,64.95
2023-05-04T04:12:03.256Z,64.96
2023-05-04T04:14:08.164Z,65.41
2023-05-04T04:16:09.981Z,65.49
2023-05-04T04:18:11.752Z,65.52
2023-05-04T04:20:14.036Z,66.09
2023-05-04T04:22:15.796Z,65.75
2023-05-04T04:24:17.508Z,65.50
2023-05-04T04:26:20.512Z,65.90
2023-05-04T04:28:22.238Z,65.30
2023-05-04T04:30:23.980Z,65.47
2023-05-04T04:32:25.798Z,65.86
2023-05-04T04:34:27.557Z,65.32
2023-05-04T04:36:29.587Z,65.67
2023-05-04T04:38:31.509Z,65.94
2023-05-04T04:40:33.303Z,65.99
2023-05-04T04:42:35.075Z,65.96
2023-05-04T04:44:37.550Z,65.51
2023-05-04T04:46:39.296Z,65.09
2023-05-04T04:48:41.459Z,65.71
2023-05-04T04:50:43.177Z,65.07
2023-05-04T04:52:45.945Z,65.30
2023-05-04T04:54:47.606Z,65.50
2023-05-04T04:56:49.393Z,65.58
2023-05-04T04:58:52.068Z,64.74
2023-05-04T05:00:58.489Z,65.27
2023-05-04T05:03:03.346Z,65.23
2023-05-04T05:05:06.025Z,64.96
2023-05-04T05:07:09.034Z,65.10
2023-05-04T05:09:11.846Z,64.71
2023-05-04T05:11:13.555Z,65.17
2023-05-04T05:13:15.331Z,64.67
2023-05-04T05:15:17.277Z,64.46
2023-05-04T05:17:20.208Z,64.60
2023-05-04T05:19:22.106Z,64.85
2023-05-04T05:21:24.002Z,64.09
2023-05-04T05:23:25.685Z,63.84
2023-05-04T05:25:28.060Z,64.27
2023-05-04T05:27:29.926Z,64.03
2023-05-04T05:29:31.713Z,64.39
2023-05-04T05:31:33.714Z,64.03
2023-05-04T05:33:35.551Z,63.71
2023-05-04T05:35:37.275Z,64.18
2023-05-04T05:37:39.089Z,63.82
2023-05-04T05:39:42.772Z,63.96
2023-05-04T05:41:47.056Z,64.15
2023-05-04T05:43:48.754Z,64.56
2023-05-04T05:45:50.676Z,64.36
2023-05-04T05:47:52.559Z,64.52
2023-05-04T05:49:54.708Z,64.22
2023-05-04T05:51:56.687Z,63.55
2023-05-04T05:54:04.001Z,63.85
2023-05-04T05:56:06.529Z,64.01
2023-05-04T05:58:08.773Z,63.93
2023-05-04T06:00:12.788Z,63.87
2023-05-04T06:02:17.586Z,63.31
2023-05-04T06:04:19.646Z,63.45
2023-05-04T06:06:21.546Z,62.97
2023-05-04T06:08:23.338Z,63.19
2023-05-04T06:10:25.258Z,63.31
2023-05-04T06:12:27.096Z,63.10
2023-05-04T06:14:29.011Z,62.93
2023-05-04T06:16:30.902Z,63.03
2023-05-04T06:18:33.011Z,62.87
2023-05-04T06:20:35.083Z,63.10
2023-05-04T06:22:36.971Z,62.89
2023-05-04T06:24:38.857Z,62.93
2023-05-04T06:26:40.839Z,62.36
2023-05-04T06:28:42.829Z,62.35
2023-05-04T06:30:45.206Z,62.01
2023-05-04T06:32:47.307Z,61.52
2023-05-04T06:34:52.979Z,61.20
2023-05-04T06:36:55.231Z,61.33
2023-05-04T06:38:58.379Z,60.92
2023-05-04T06:41:00.286Z,60.66
2023-05-04T06:43:04.633Z,60.81
2023-05-04T06:45:07.454Z,60.34
2023-05-04T06:47:09.432Z,60.37
2023-05-04T06:49:12.425Z,59.92
2023-05-04T06:51:14.644Z,59.85
2023-05-04T06:53:19.785Z,59.78
2023-05-04T06:55:21.833Z,59.47
2023-05-04T06:57:23.907Z,59.31
2023-05-04T06:59:26.375Z,59.47
2023-05-04T07:01:28.631Z,58.97
2023-05-04T07:03:30.905Z,59.41
2023-05-04T07:05:38.680Z,59.83
2023-05-04T07:07:40.773Z,59.22
2023-05-04T07:09:44.094Z,59.01
2023-05-04T07:11:46.589Z,59.10
2023-05-04T07:13:48.842Z,58.69
2023-05-04T07:15:53.404Z,58.35
2023-05-04T07:17:55.413Z,58.36
2023-05-04T07:19:57.509Z,58.59
2023-05-04T07:22:00.568Z,58.23
2023-05-04T07:24:02.849Z,58.13
2023-05-04T07:26:05.322Z,57.41
2023-05-04T07:28:07.426Z,57.14
2023-05-04T07:30:09.735Z,56.60
2023-05-04T07:32:11.891Z,56.80
2023-05-04T07:34:13.945Z,56.37
2023-05-04T07:36:15.989Z,56.29
2023-05-04T07:38:17.914Z,56.32
2023-05-04T07:40:20.446Z,56.22
2023-05-04T07:42:23.672Z,56.59
2023-05-04T07:44:25.647Z,56.32
2023-05-04T07:46:27.490Z,56.89
2023-05-04T07:48:29.333Z,56.58
2023-05-04T07:50:31.566Z,56.23
2023-05-04T07:52:33.531Z,56.92
2023-05-04T07:54:36.531Z,56.70
2023-05-04T07:56:38.839Z,56.52
2023-05-04T07:58:41.687Z,57.39
2023-05-04T08:00:43.742Z,57.04
2023-05-04T08:02:46.338Z,56.99
2023-05-04T08:04:48.516Z,56.86
2023-05-04T08:06:51.044Z,56.72
2023-05-04T08:08:53.129Z,56.68
2023-05-04T08:11:02.025Z,56.89
2023-05-04T08:13:10.527Z,56.56
2023-05-04T08:15:12.735Z,56.40
2023-05-04T08:17:14.584Z,56.22
2023-05-04T08:19:16.447Z,56.32
2023-05-04T08:21:18.658Z,55.70
2023-05-04T08:23:20.629Z,55.47
2023-05-04T08:25:22.893Z,56.09
2023-05-04T08:27:24.750Z,56.21
2023-05-04T08:29:26.723Z,55.59
2023-05-04T08:31:28.739Z,54.97
2023-05-04T08:33:33.669Z,54.90
2023-05-04T08:35:35.837Z,54.47
2023-05-04T08:37:38.159Z,54.83
2023-05-04T08:39:41.966Z,53.79
2023-05-04T08:41:44.519Z,53.89
2023-05-04T08:43:46.919Z,53.62
2023-05-04T08:45:49.856Z,53.66
2023-05-04T08:47:52.208Z,53.94
2023-05-04T08:49:57.359Z,53.55
2023-05-04T08:52:00.733Z,53.20
2023-05-04T08:54:07.352Z,52.59
2023-05-04T08:56:12.573Z,52.50
2023-05-04T08:58:17.576Z,52.28
2023-05-04T09:00:20.772Z,52.06
2023-05-04T09:02:24.425Z,51.95
2023-05-04T09:04:29.225Z,51.49
2023-05-04T09:06:32.210Z,51.28
2023-05-04T09:08:34.732Z,51.32
2023-05-04T09:10:37.045Z,50.93
2023-05-04T09:12:39.069Z,50.39
2023-05-04T09:14:41.635Z,50.35
2023-05-04T09:16:46.932Z,49.67
2023-05-04T09:18:49.255Z,50.16
2023-05-04T09:20:53.738Z,49.68
2023-05-04T09:23:08.218Z,49.36
2023-05-04T09:25:12.458Z,48.97
2023-05-04T09:27:18.415Z,49.17
2023-05-04T09:29:22.293Z,48.11
2023-05-04T09:31:25.456Z,47.61
2023-05-04T09:33:28.155Z,47.81
2023-05-04T09:35:33.632Z,47.32
2023-05-04T09:37:45.816Z,46.87
2023-05-04T09:40:00.364Z,46.91
2023-05-04T09:42:02.891Z,46.53
2023-05-04T09:44:05.508Z,45.96
2023-05-04T09:46:08.991Z,45.97
2023-05-04T09:48:22.436Z,45.88
2023-05-04T09:50:26.787Z,46.05
2023-05-04T09:52:32.478Z,46.00
2023-05-04T09:54:36.503Z,46.00
2023-05-04T09:56:49.990Z,45.59
2023-05-04T09:58:53.157Z,45.86
2023-05-04T10:00:55.511Z,45.27
2023-05-04T10:02:58.209Z,45.11
2023-05-04T10:05:04.498Z,44.98
2023-05-04T10:07:07.321Z,44.63
2023-05-04T10:09:10.374Z,44.55
2023-05-04T10:11:18.979Z,44.11
2023-05-04T10:13:21.284Z,44.17
2023-05-04T10:15:25.281Z,43.41
2023-05-04T10:17:46.732Z,43.31
2023-05-04T10:20:20.821Z,42.47
2023-05-04T10:22:32.925Z,42.28
2023-05-04T10:24:36.726Z,42.49
2023-05-04T10:26:59.929Z,42.51
2023-05-04T10:29:12.557Z,42.19
2023-05-04T10:31:14.952Z,41.91
2023-05-04T10:33:17.135Z,41.80
2023-05-04T10:35:20.388Z,41.90
2023-05-04T10:37:23.020Z,41.32
2023-05-04T10:39:33.745Z,40.88
2023-05-04T10:41:35.769Z,40.48
2023-05-04T10:43:38.246Z,40.19
2023-05-04T10:45:42.296Z,39.76
2023-05-04T10:47:44.610Z,39.56
2023-05-04T10:49:47.326Z,39.27
2023-05-04T10:51:49.900Z,38.89
2023-05-04T10:53:53.187Z,38.61
2023-05-04T10:55:55.249Z,38.68
2023-05-04T10:57:58.371Z,38.53
2023-05-04T11:00:04.655Z,38.44
2023-05-04T11:02:07.885Z,38.41
2023-05-04T11:04:20.331Z,38.06
2023-05-04T11:06:24.371Z,37.63
2023-05-04T11:08:27.677Z,37.46
2023-05-04T11:10:29.955Z,37.31
2023-05-04T11:12:33.341Z,36.92
2023-05-04T11:14:41.534Z,37.39
2023-05-04T11:16:43.891Z,37.70
2023-05-04T11:18:46.092Z,37.95
2023-05-04T11:20:48.254Z,37.69
2023-05-04T11:22:51.152Z,37.76
2023-05-04T11:24:54.972Z,38.08
2023-05-04T11:26:58.667Z,38.51
2023-05-04T11:29:00.976Z,39.30
2023-05-04T11:31:19.922Z,39.98
2023-05-04T11:33:22.180Z,39.88
2023-05-04T11:35:25.273Z,39.58
2023-05-04T11:37:29.674Z,39.59
2023-05-04T11:39:33.742Z,39.52
2023-05-04T11:41:36.754Z,39.52
2023-05-04T11:43:42.503Z,39.63
2023-05-04T11:45:48.271Z,39.18
2023-05-04T11:47:51.866Z,39.08
2023-05-04T11:50:10.192Z,39.25
2023-05-04T11:52:12.656Z,38.83
2023-05-04T11:54:22.665Z,38.94
2023-05-04T11:56:25.189Z,38.91
2023-05-04T11:58:28.041Z,38.85
2023-05-04T12:00:40.887Z,38.62
2023-05-04T12:02:43.449Z,39.51
2023-05-04T12:04:45.615Z,38.89
2023-05-04T12:06:47.929Z,38.85
2023-05-04T12:08:50.194Z,38.98
2023-05-04T12:11:25.831Z,38.65
2023-05-04T12:13:28.494Z,38.17
2023-05-04T12:15:32.970Z,38.06
2023-05-04T12:17:44.319Z,38.06
2023-05-04T12:19:57.457Z,37.92
2023-05-04T12:21:59.931Z,38.17
2023-05-04T12:24:02.654Z,38.12
2023-05-04T12:26:05.261Z,38.11
2023-05-04T12:28:08.034Z,38.57
2023-05-04T12:30:11.293Z,38.80
2023-05-04T12:32:13.485Z,38.72
2023-05-04T12:34:15.941Z,38.92
2023-05-04T12:36:18.976Z,39.60
2023-05-04T12:38:21.344Z,39.38
2023-05-04T12:40:28.634Z,38.40
2023-05-04T12:42:32.209Z,38.32
2023-05-04T12:44:34.817Z,38.00
2023-05-04T12:46:37.710Z,37.60
2023-05-04T12:48:43.085Z,37.87
2023-05-04T12:50:46.201Z,38.08
2023-05-04T12:52:48.986Z,38.11
2023-05-04T12:54:51.369Z,38.24
2023-05-04T12:56:53.695Z,38.30
2023-05-04T12:58:56.891Z,37.90
2023-05-04T13:01:00.106Z,38.26
2023-05-04T13:03:04.018Z,38.18
2023-05-04T13:05:08.274Z,38.25
2023-05-04T13:07:10.906Z,38.24
2023-05-04T13:09:14.204Z,38.23
2023-05-04T13:11:19.509Z,38.54
2023-05-04T13:13:26.563Z,39.19
2023-05-04T13:15:29.057Z,39.17
2023-05-04T13:17:34.275Z,39.06
2023-05-04T13:19:37.124Z,39.50
2023-05-04T13:21:39.506Z,39.42
2023-05-04T13:23:41.615Z,39.70
2023-05-04T13:25:48.576Z,40.41
2023-05-04T13:27:53.752Z,40.94
2023-05-04T13:30:01.315Z,41.06
2023-05-04T13:32:04.004Z,40.82
2023-05-04T13:34:06.497Z,40.92
2023-05-04T13:36:09.033Z,41.09
2023-05-04T13:38:11.615Z,41.38
2023-05-04T13:40:15.791Z,41.77
2023-05-04T13:42:18.340Z,42.49
2023-05-04T13:44:20.826Z,42.60
2023-05-04T13:46:23.401Z,42.37
2023-05-04T13:48:28.559Z,42.96
2023-05-04T13:50:32.254Z,43.27
2023-05-04T13:52:34.753Z,43.43
2023-05-04T13:54:37.825Z,43.25
2023-05-04T13:56:39.942Z,43.24
2023-05-04T13:58:51.509Z,43.61
2023-05-04T14:01:10.806Z,43.96
2023-05-04T14:03:13.604Z,44.13
2023-05-04T14:05:16.176Z,44.17
2023-05-04T14:07:18.786Z,43.95
2023-05-04T14:09:21.262Z,44.62
2023-05-04T14:11:23.539Z,44.55
2023-05-04T14:13:26.094Z,44.31
2023-05-04T14:15:28.337Z,44.50
2023-05-04T14:17:30.752Z,44.52
2023-05-04T14:19:32.985Z,44.99
2023-05-04T14:21:36.248Z,45.22
2023-05-04T14:23:38.588Z,45.59
2023-05-04T14:25:42.656Z,46.11
2023-05-04T14:27:45.049Z,46.30
2023-05-04T14:30:00.182Z,46.94
2023-05-04T14:32:04.743Z,47.17
2023-05-04T14:34:07.189Z,47.27
2023-05-04T14:36:11.151Z,46.68
2023-05-04T14:38:13.820Z,47.14
2023-05-04T14:40:15.995Z,46.88
2023-05-04T14:42:18.150Z,46.12
2023-05-04T14:44:20.735Z,45.98
2023-05-04T14:46:22.983Z,45.37
2023-05-04T14:48:28.068Z,44.91
2023-05-04T14:50:38.688Z,44.66
2023-05-04T14:52:43.746Z,44.92
2023-05-04T14:54:46.016Z,44.63
2023-05-04T14:56:48.428Z,44.00
2023-05-04T14:58:50.743Z,43.50
2023-05-04T15:00:54.330Z,43.67
2023-05-04T15:02:56.586Z,43.60
2023-05-04T15:05:01.320Z,43.15
2023-05-04T15:07:04.886Z,43.59
2023-05-04T15:09:07.392Z,43.98
2023-05-04T15:11:10.034Z,43.71
2023-05-04T15:13:16.255Z,44.00
2023-05-04T15:15:19.476Z,43.55
2023-05-04T15:17:21.674Z,43.77
2023-05-04T15:19:25.489Z,42.54
2023-05-04T15:21:28.192Z,42.79
2023-05-04T15:23:30.470Z,42.70
2023-05-04T15:25:32.759Z,42.35
2023-05-04T15:27:35.400Z,42.95
2023-05-04T15:29:39.533Z,42.68
2023-05-04T15:32:08.078Z,43.50
2023-05-04T15:37:35.891Z,44.59
2023-05-04T15:39:38.693Z,45.85
2023-05-04T15:41:42.828Z,45.86
2023-05-04T15:43:45.392Z,46.04
2023-05-04T15:45:47.947Z,46.35
2023-05-04T15:47:51.435Z,46.41
2023-05-04T15:49:53.943Z,46.39
2023-05-04T15:51:56.684Z,46.43
2023-05-04T15:53:59.486Z,46.27
2023-05-04T15:56:05.006Z,46.37
2023-05-04T15:58:08.437Z,45.99
2023-05-04T16:00:11.944Z,45.80
2023-05-04T16:02:14.487Z,45.38
2023-05-04T16:04:17.459Z,45.05
2023-05-04T16:06:20.650Z,45.07
2023-05-04T16:08:24.067Z,45.23
2023-05-04T16:10:26.523Z,45.87
2023-05-04T16:12:29.306Z,45.75
2023-05-04T16:14:32.222Z,45.87
2023-05-04T16:16:34.809Z,45.43
2023-05-04T16:18:37.412Z,45.34
2023-05-04T16:20:40.135Z,45.40
2023-05-04T16:22:42.717Z,45.71
2023-05-04T16:24:45.504Z,46.08
2023-05-04T16:26:50.245Z,46.57
2023-05-04T16:28:53.142Z,46.79
2023-05-04T16:30:56.387Z,47.23
2023-05-04T16:32:59.520Z,47.61
2023-05-04T16:35:02.324Z,47.62
2023-05-04T16:37:04.758Z,47.66
2023-05-04T16:39:07.729Z,47.33
2023-05-04T16:41:10.452Z,47.63
2023-05-04T16:43:13.324Z,47.52
2023-05-04T16:45:16.766Z,47.51
2023-05-04T16:47:19.329Z,47.30
2023-05-04T16:49:22.357Z,47.07
2023-05-04T16:51:25.198Z,46.85
2023-05-04T16:53:28.384Z,47.17
2023-05-04T16:55:30.997Z,47.30
2023-05-04T16:57:34.076Z,47.16
2023-05-04T16:59:37.076Z,47.46
2023-05-04T17:01:39.926Z,47.56
2023-05-04T17:03:42.598Z,47.37
2023-05-04T17:05:45.409Z,48.25
2023-05-04T17:07:48.196Z,48.55
2023-05-04T17:09:50.925Z,48.52
2023-05-04T17:11:55.709Z,49.01
2023-05-04T17:13:59.549Z,48.62
2023-05-04T17:16:02.621Z,48.19
2023-05-04T17:18:05.431Z,48.18
2023-05-04T17:20:09.748Z,48.13
2023-05-04T17:22:12.582Z,47.78
2023-05-04T17:24:15.831Z,47.76
2023-05-04T17:26:18.447Z,47.76
2023-05-04T17:28:20.855Z,47.52
2023-05-04T17:30:24.252Z,48.22
2023-05-04T17:32:27.327Z,48.36
2023-05-04T17:34:29.964Z,48.17
2023-05-04T17:36:32.992Z,48.63
2023-05-04T17:38:35.549Z,48.59
2023-05-04T17:40:38.199Z,48.57
2023-05-04T17:42:41.013Z,48.90
2023-05-04T17:44:43.984Z,49.80
2023-05-04T17:46:47.804Z,49.99
2023-05-04T17:48:50.720Z,49.91
2023-05-04T17:50:53.926Z,49.95
2023-05-04T17:52:56.702Z,50.06
2023-05-04T17:54:59.317Z,50.03
2023-05-04T17:57:01.892Z,49.92
2023-05-04T17:59:04.483Z,50.59
2023-05-04T18:01:07.571Z,51.31
2023-05-04T18:03:11.019Z,52.72
2023-05-04T18:05:13.704Z,52.67
2023-05-04T18:07:16.447Z,52.51
2023-05-04T18:09:20.356Z,52.40
2023-05-04T18:11:22.910Z,52.35
2023-05-04T18:13:25.478Z,52.12
2023-05-04T18:15:28.096Z,51.96
2023-05-04T18:17:31.051Z,52.67
2023-05-04T18:19:34.630Z,52.57
2023-05-04T18:21:37.693Z,52.74
2023-05-04T18:23:40.005Z,53.52
2023-05-04T18:25:42.516Z,54.15
2023-05-04T18:27:44.890Z,53.73
2023-05-04T18:29:49.074Z,53.64
2023-05-04T18:31:51.397Z,53.96
2023-05-04T18:33:53.647Z,54.69
2023-05-04T18:35:55.724Z,55.26
2023-05-04T18:37:58.195Z,55.77
2023-05-04T18:40:00.993Z,55.20
2023-05-04T18:42:03.560Z,55.20
2023-05-04T18:44:06.225Z,55.54
2023-05-04T18:46:08.875Z,55.56
2023-05-04T18:48:11.412Z,56.37
2023-05-04T18:50:13.716Z,56.42
2023-05-04T18:52:16.251Z,56.60
2023-05-04T18:54:18.671Z,57.12
2023-05-04T18:56:20.997Z,57.16
2023-05-04T18:58:23.306Z,57.56
2023-05-04T19:00:25.918Z,57.60
2023-05-04T19:02:30.275Z,57.53
2023-05-04T19:04:33.051Z,57.81
2023-05-04T19:06:35.218Z,58.06
2023-05-04T19:08:37.393Z,57.96
2023-05-04T19:10:39.700Z,58.07
2023-05-04T19:12:41.875Z,57.75
2023-05-04T19:14:44.344Z,58.33
2023-05-04T19:16:46.584Z,58.01
2023-05-04T19:18:48.938Z,58.10
2023-05-04T19:20:51.467Z,57.97
2023-05-04T19:22:55.672Z,57.73
2023-05-04T19:24:57.773Z,57.57
2023-05-04T19:27:00.956Z,57.88
2023-05-04T19:29:03.783Z,57.73
2023-05-04T19:31:06.594Z,57.89
2023-05-04T19:33:09.078Z,57.62
2023-05-04T19:35:11.391Z,58.02
2023-05-04T19:37:13.785Z,57.86
2023-05-04T19:39:17.164Z,57.75
2023-05-04T19:41:19.483Z,57.77
2023-05-04T19:43:24.410Z,57.96
2023-05-04T19:45:26.780Z,57.61
2023-05-04T19:47:29.270Z,57.42
2023-05-04T19:49:31.481Z,57.38
2023-05-04T19:51:34.081Z,57.88
2023-05-04T19:53:36.880Z,57.92
2023-05-04T19:55:38.956Z,57.90
2023-05-04T19:57:41.272Z,57.69
2023-05-04T19:59:46.118Z,57.86
2023-05-04T20:01:49.082Z,57.52
2023-05-04T20:03:51.348Z,57.81
2023-05-04T20:05:56.178Z,57.73
2023-05-04T20:07:58.337Z,58.02
2023-05-04T20:10:00.656Z,57.84
2023-05-04T20:12:03.438Z,57.87
2023-05-04T20:14:06.048Z,57.55
2023-05-04T20:16:08.636Z,57.73
2023-05-04T20:18:10.821Z,57.45
2023-05-04T20:20:19.178Z,57.59
2023-05-04T20:22:21.610Z,58.03
2023-05-04T20:24:23.824Z,58.11
2023-05-04T20:26:26.084Z,57.89
2023-05-04T20:28:28.411Z,58.12
2023-05-04T20:30:30.528Z,57.60
2023-05-04T20:32:33.033Z,57.59
2023-05-04T20:34:36.140Z,58.48
2023-05-04T20:36:38.317Z,58.67
2023-05-04T20:38:40.462Z,59.34
2023-05-04T20:40:42.515Z,59.39
2023-05-04T20:42:44.696Z,59.78
2023-05-04T20:44:47.078Z,60.09
2023-05-04T20:46:49.310Z,59.75
2023-05-04T20:48:51.576Z,60.46
2023-05-04T20:51:02.774Z,60.03
2023-05-04T20:53:15.749Z,59.70
2023-05-04T20:55:18.042Z,59.08
2023-05-04T20:57:20.461Z,59.83
2023-05-04T20:59:22.565Z,60.04
2023-05-04T21:01:24.743Z,59.78
2023-05-04T21:03:26.993Z,60.00
2023-05-04T21:05:29.138Z,60.57
2023-05-04T21:07:31.600Z,61.14
2023-05-04T21:09:33.721Z,61.07
2023-05-04T21:11:35.707Z,60.66
2023-05-04T21:13:37.705Z,60.94
2023-05-04T21:15:39.813Z,60.42
2023-05-04T21:17:42.029Z,60.96
2023-05-04T21:19:44.185Z,61.52
2023-05-04T21:21:46.248Z,61.58
2023-05-04T21:23:48.339Z,62.56
2023-05-04T21:25:50.367Z,62.47
2023-05-04T21:27:52.414Z,62.17
2023-05-04T21:29:54.477Z,62.22
2023-05-04T21:31:57.688Z,62.38
2023-05-04T21:33:59.881Z,62.21
2023-05-04T21:36:08.211Z,62.98
2023-05-04T21:38:10.262Z,63.23
2023-05-04T21:40:12.518Z,62.81
2023-05-04T21:42:14.632Z,62.93
2023-05-04T21:44:16.663Z,63.40
2023-05-04T21:46:18.799Z,62.55
2023-05-04T21:48:20.933Z,62.11
2023-05-04T21:50:23.038Z,62.10
2023-05-04T21:52:24.980Z,62.25
2023-05-04T21:54:26.969Z,62.19
2023-05-04T21:56:29.126Z,62.69
2023-05-04T21:58:31.077Z,62.58
2023-05-04T22:00:33.377Z,61.98
2023-05-04T22:02:35.555Z,62.10
2023-05-04T22:04:37.705Z,62.09
2023-05-04T22:06:39.905Z,62.63
2023-05-04T22:08:42.004Z,62.45
2023-05-04T22:10:43.990Z,62.88
2023-05-04T22:12:46.109Z,62.74
2023-05-04T22:14:48.238Z,63.14
2023-05-04T22:16:50.407Z,63.25
2023-05-04T22:18:52.670Z,62.93
2023-05-04T22:20:54.651Z,63.08
2023-05-04T22:22:56.818Z,64.14
2023-05-04T22:24:58.961Z,64.10
2023-05-04T22:27:01.038Z,64.39
2023-05-04T22:29:03.841Z,64.34
2023-05-04T22:31:06.208Z,64.15
2023-05-04T22:33:08.485Z,64.59
2023-05-04T22:35:10.947Z,64.09
2023-05-04T22:37:12.900Z,64.23
2023-05-04T22:39:15.934Z,64.38
2023-05-04T22:41:18.242Z,64.06
2023-05-04T22:43:20.460Z,64.49
2023-05-04T22:45:22.563Z,64.84
2023-05-04T22:47:24.837Z,64.41
2023-05-04T22:49:26.775Z,64.95
2023-05-04T22:51:28.881Z,64.90
2023-05-04T22:53:30.989Z,64.75
2023-05-04T22:55:33.315Z,65.30
2023-05-04T22:57:35.586Z,65.55
2023-05-04T22:59:37.728Z,65.91
2023-05-04T23:01:43.592Z,66.19
2023-05-04T23:03:46.535Z,66.37
2023-05-04T23:05:48.919Z,65.95
2023-05-04T23:07:52.564Z,66.45
2023-05-04T23:09:54.597Z,66.29
2023-05-04T23:11:56.633Z,66.40
2023-05-04T23:13:58.634Z,67.02
2023-05-04T23:16:00.828Z,67.20
2023-05-04T23:18:02.856Z,67.37
2023-05-04T23:20:08.220Z,67.24
2023-05-04T23:22:10.716Z,67.27
2023-05-04T23:24:13.017Z,67.37
2023-05-04T23:26:16.395Z,67.19
2023-05-04T23:28:18.506Z,67.23
2023-05-04T23:30:20.537Z,67.25
2023-05-04T23:32:22.622Z,67.21
2023-05-04T23:34:24.743Z,66.97
2023-05-04T23:36:27.764Z,67.12
2023-05-04T23:38:29.719Z,66.75
2023-05-04T23:40:31.906Z,67.37
2023-05-04T23:42:33.857Z,67.65
2023-05-04T23:44:36.245Z,67.92
2023-05-04T23:46:38.373Z,68.79
2023-05-04T23:48:40.450Z,68.66
2023-05-04T23:50:52.832Z,68.08
2023-05-04T23:52:54.828Z,68.02
2023-05-04T23:54:56.746Z,68.49
2023-05-04T23:56:59.384Z,68.12
2023-05-04T23:59:01.486Z,68.30
